sensor_id;sensor_type;location;lat;lon;timestamp;temperature;humidity
46336;DHT22;31365;48.858;8.530;2022-07-30T00:00:28;20.30;99.90
46336;DHT22;31365;48.858;8.530;2022-07-30T00:02:57;20.20;99.90
46336;DHT22;31365;48.858;8.530;2022-07-30T00:05:26;20.20;99.90
46336;DHT22;31365;48.858;8.530;2022-07-30T00:07:55;20.20;99.90
46336;DHT22;31365;48.858;8.530;2022-07-30T00:10:23;20.20;99.90
46336;DHT22;31365;48.858;8.530;2022-07-30T00:12:52;20.20;99.90
46336;DHT22;31365;48.858;8.530;2022-07-30T00:15:22;20.10;99.90
46336;DHT22;31365;48.858;8.530;2022-07-30T00:17:51;20.00;99.90
46336;DHT22;31365;48.858;8.530;2022-07-30T00:20:20;20.00;99.90
46336;DHT22;31365;48.858;8.530;2022-07-30T00:22:53;20.00;99.90
46336;DHT22;31365;48.858;8.530;2022-07-30T00:25:23;20.00;99.90
46336;DHT22;31365;48.858;8.530;2022-07-30T00:27:53;20.00;99.90
46336;DHT22;31365;48.858;8.530;2022-07-30T00:30:23;19.90;99.90
46336;DHT22;31365;48.858;8.530;2022-07-30T00:32:52;19.80;99.90
46336;DHT22;31365;48.858;8.530;2022-07-30T00:35:20;19.80;99.90
46336;DHT22;31365;48.858;8.530;2022-07-30T00:37:49;19.80;99.90
46336;DHT22;31365;48.858;8.530;2022-07-30T00:40:17;19.80;99.90
46336;DHT22;31365;48.858;8.530;2022-07-30T00:42:46;19.70;99.90
46336;DHT22;31365;48.858;8.530;2022-07-30T00:45:16;19.80;99.90
46336;DHT22;31365;48.858;8.530;2022-07-30T00:47:46;19.70;99.90
46336;DHT22;31365;48.858;8.530;2022-07-30T00:50:15;19.70;99.90
46336;DHT22;31365;48.858;8.530;2022-07-30T00:52:44;19.70;99.90
46336;DHT22;31365;48.858;8.530;2022-07-30T00:55:14;19.70;99.90
46336;DHT22;31365;48.858;8.530;2022-07-30T00:57:43;19.60;99.90
46336;DHT22;31365;48.858;8.530;2022-07-30T01:00:14;19.60;99.90
46336;DHT22;31365;48.858;8.530;2022-07-30T01:02:45;19.60;99.90
46336;DHT22;31365;48.858;8.530;2022-07-30T01:05:14;19.50;99.90
46336;DHT22;31365;48.858;8.530;2022-07-30T01:07:42;19.50;99.90
46336;DHT22;31365;48.858;8.530;2022-07-30T01:10:14;19.40;99.90
46336;DHT22;31365;48.858;8.530;2022-07-30T01:12:43;19.40;99.90
46336;DHT22;31365;48.858;8.530;2022-07-30T01:15:13;19.40;99.90
46336;DHT22;31365;48.858;8.530;2022-07-30T01:17:43;19.30;99.90
46336;DHT22;31365;48.858;8.530;2022-07-30T01:20:23;19.20;99.90
46336;DHT22;31365;48.858;8.530;2022-07-30T01:23:03;19.20;99.90
46336;DHT22;31365;48.858;8.530;2022-07-30T01:25:53;19.20;99.90
46336;DHT22;31365;48.858;8.530;2022-07-30T01:28:29;19.20;99.90
46336;DHT22;31365;48.858;8.530;2022-07-30T01:31:02;19.10;99.90
46336;DHT22;31365;48.858;8.530;2022-07-30T01:33:38;19.00;99.90
46336;DHT22;31365;48.858;8.530;2022-07-30T01:36:12;19.00;99.90
46336;DHT22;31365;48.858;8.530;2022-07-30T01:38:44;19.00;99.90
46336;DHT22;31365;48.858;8.530;2022-07-30T01:41:17;18.90;99.90
46336;DHT22;31365;48.858;8.530;2022-07-30T01:43:46;18.90;99.90
46336;DHT22;31365;48.858;8.530;2022-07-30T01:46:15;18.90;99.90
46336;DHT22;31365;48.858;8.530;2022-07-30T01:48:48;18.90;99.90
46336;DHT22;31365;48.858;8.530;2022-07-30T01:51:18;18.80;99.90
46336;DHT22;31365;48.858;8.530;2022-07-30T01:53:50;18.70;99.90
46336;DHT22;31365;48.858;8.530;2022-07-30T01:56:23;18.70;99.90
46336;DHT22;31365;48.858;8.530;2022-07-30T01:58:54;18.60;99.90
46336;DHT22;31365;48.858;8.530;2022-07-30T02:01:26;18.60;99.90
46336;DHT22;31365;48.858;8.530;2022-07-30T02:04:01;18.60;99.90
46336;DHT22;31365;48.858;8.530;2022-07-30T02:06:37;18.50;99.90
46336;DHT22;31365;48.858;8.530;2022-07-30T02:09:15;18.50;99.90
46336;DHT22;31365;48.858;8.530;2022-07-30T02:11:52;18.50;99.90
46336;DHT22;31365;48.858;8.530;2022-07-30T02:14:45;18.50;99.90
46336;DHT22;31365;48.858;8.530;2022-07-30T02:17:20;18.50;99.90
46336;DHT22;31365;48.858;8.530;2022-07-30T02:20:01;18.40;99.90
46336;DHT22;31365;48.858;8.530;2022-07-30T02:22:38;18.40;99.90
46336;DHT22;31365;48.858;8.530;2022-07-30T02:25:19;18.30;99.90
46336;DHT22;31365;48.858;8.530;2022-07-30T02:28:02;18.30;99.90
46336;DHT22;31365;48.858;8.530;2022-07-30T02:30:36;18.20;99.90
46336;DHT22;31365;48.858;8.530;2022-07-30T02:33:08;18.40;99.90
46336;DHT22;31365;48.858;8.530;2022-07-30T02:35:39;18.30;99.90
46336;DHT22;31365;48.858;8.530;2022-07-30T02:38:10;18.20;99.90
46336;DHT22;31365;48.858;8.530;2022-07-30T02:40:41;18.20;99.90
46336;DHT22;31365;48.858;8.530;2022-07-30T02:43:14;18.20;99.90
46336;DHT22;31365;48.858;8.530;2022-07-30T02:45:45;18.10;99.90
46336;DHT22;31365;48.858;8.530;2022-07-30T02:48:20;18.10;99.90
46336;DHT22;31365;48.858;8.530;2022-07-30T02:51:02;18.00;99.90
46336;DHT22;31365;48.858;8.530;2022-07-30T02:53:33;18.00;99.90
46336;DHT22;31365;48.858;8.530;2022-07-30T02:56:04;18.00;99.90
46336;DHT22;31365;48.858;8.530;2022-07-30T02:58:37;18.00;99.90
46336;DHT22;31365;48.858;8.530;2022-07-30T03:01:08;18.00;99.90
46336;DHT22;31365;48.858;8.530;2022-07-30T03:03:39;17.90;99.90
46336;DHT22;31365;48.858;8.530;2022-07-30T03:06:11;17.90;99.90
46336;DHT22;31365;48.858;8.530;2022-07-30T03:08:43;17.90;99.90
46336;DHT22;31365;48.858;8.530;2022-07-30T03:11:14;17.90;99.90
46336;DHT22;31365;48.858;8.530;2022-07-30T03:13:48;17.80;99.90
46336;DHT22;31365;48.858;8.530;2022-07-30T03:16:21;17.80;99.90
46336;DHT22;31365;48.858;8.530;2022-07-30T03:18:53;17.80;99.90
46336;DHT22;31365;48.858;8.530;2022-07-30T03:21:25;17.70;99.90
46336;DHT22;31365;48.858;8.530;2022-07-30T03:23:56;17.70;99.90
46336;DHT22;31365;48.858;8.530;2022-07-30T03:26:29;17.70;99.90
46336;DHT22;31365;48.858;8.530;2022-07-30T03:29:00;17.70;99.90
46336;DHT22;31365;48.858;8.530;2022-07-30T03:31:30;17.60;99.90
46336;DHT22;31365;48.858;8.530;2022-07-30T03:34:05;17.60;99.90
46336;DHT22;31365;48.858;8.530;2022-07-30T03:36:38;17.60;99.90
46336;DHT22;31365;48.858;8.530;2022-07-30T03:39:08;17.70;99.90
46336;DHT22;31365;48.858;8.530;2022-07-30T03:41:38;17.80;99.90
46336;DHT22;31365;48.858;8.530;2022-07-30T03:44:14;17.90;99.90
46336;DHT22;31365;48.858;8.530;2022-07-30T03:46:44;18.00;99.90
46336;DHT22;31365;48.858;8.530;2022-07-30T03:49:16;18.00;99.90
46336;DHT22;31365;48.858;8.530;2022-07-30T03:51:48;17.90;99.90
46336;DHT22;31365;48.858;8.530;2022-07-30T03:54:18;17.90;99.90
46336;DHT22;31365;48.858;8.530;2022-07-30T03:57:13;17.90;99.90
46336;DHT22;31365;48.858;8.530;2022-07-30T03:59:48;17.80;99.90
46336;DHT22;31365;48.858;8.530;2022-07-30T04:02:19;17.80;99.90
46336;DHT22;31365;48.858;8.530;2022-07-30T04:05:19;17.80;99.90
46336;DHT22;31365;48.858;8.530;2022-07-30T04:07:49;17.80;99.90
46336;DHT22;31365;48.858;8.530;2022-07-30T04:10:19;17.80;99.90
46336;DHT22;31365;48.858;8.530;2022-07-30T04:12:57;17.80;99.90
46336;DHT22;31365;48.858;8.530;2022-07-30T04:15:30;17.80;99.90
46336;DHT22;31365;48.858;8.530;2022-07-30T04:18:26;17.80;99.90
46336;DHT22;31365;48.858;8.530;2022-07-30T04:21:02;17.80;99.90
46336;DHT22;31365;48.858;8.530;2022-07-30T04:23:45;17.70;99.90
46336;DHT22;31365;48.858;8.530;2022-07-30T04:26:35;17.70;99.90
46336;DHT22;31365;48.858;8.530;2022-07-30T04:29:06;17.80;99.90
46336;DHT22;31365;48.858;8.530;2022-07-30T04:31:44;17.90;99.90
46336;DHT22;31365;48.858;8.530;2022-07-30T04:34:32;17.90;99.90
46336;DHT22;31365;48.858;8.530;2022-07-30T04:37:03;17.90;99.90
46336;DHT22;31365;48.858;8.530;2022-07-30T04:39:32;17.90;99.90
46336;DHT22;31365;48.858;8.530;2022-07-30T04:42:01;17.90;99.90
46336;DHT22;31365;48.858;8.530;2022-07-30T04:44:34;18.00;99.90
46336;DHT22;31365;48.858;8.530;2022-07-30T04:47:24;18.00;99.90
46336;DHT22;31365;48.858;8.530;2022-07-30T04:50:13;18.10;99.90
46336;DHT22;31365;48.858;8.530;2022-07-30T04:52:45;18.10;99.90
46336;DHT22;31365;48.858;8.530;2022-07-30T04:55:21;18.10;99.90
46336;DHT22;31365;48.858;8.530;2022-07-30T04:57:52;18.20;99.90
46336;DHT22;31365;48.858;8.530;2022-07-30T05:00:22;18.20;99.90
46336;DHT22;31365;48.858;8.530;2022-07-30T05:02:53;18.30;99.90
46336;DHT22;31365;48.858;8.530;2022-07-30T05:05:23;18.30;99.90
46336;DHT22;31365;48.858;8.530;2022-07-30T05:07:56;18.40;99.90
46336;DHT22;31365;48.858;8.530;2022-07-30T05:10:25;18.40;99.90
46336;DHT22;31365;48.858;8.530;2022-07-30T05:12:55;18.60;99.90
46336;DHT22;31365;48.858;8.530;2022-07-30T05:15:24;18.60;99.90
46336;DHT22;31365;48.858;8.530;2022-07-30T05:18:06;18.80;99.90
46336;DHT22;31365;48.858;8.530;2022-07-30T05:20:38;18.90;99.90
46336;DHT22;31365;48.858;8.530;2022-07-30T05:23:18;19.00;99.90
46336;DHT22;31365;48.858;8.530;2022-07-30T05:25:59;19.20;99.90
46336;DHT22;31365;48.858;8.530;2022-07-30T05:28:33;19.20;99.90
46336;DHT22;31365;48.858;8.530;2022-07-30T05:31:06;19.40;99.90
46336;DHT22;31365;48.858;8.530;2022-07-30T05:33:38;19.40;99.90
46336;DHT22;31365;48.858;8.530;2022-07-30T05:36:11;19.60;99.90
46336;DHT22;31365;48.858;8.530;2022-07-30T05:38:40;19.60;99.90
46336;DHT22;31365;48.858;8.530;2022-07-30T05:41:34;19.70;99.90
46336;DHT22;31365;48.858;8.530;2022-07-30T05:44:09;19.80;99.90
46336;DHT22;31365;48.858;8.530;2022-07-30T05:46:38;19.90;99.90
46336;DHT22;31365;48.858;8.530;2022-07-30T05:49:08;20.00;99.90
46336;DHT22;31365;48.858;8.530;2022-07-30T05:51:36;20.10;99.90
46336;DHT22;31365;48.858;8.530;2022-07-30T05:54:05;20.30;99.90
46336;DHT22;31365;48.858;8.530;2022-07-30T05:56:45;20.40;99.90
46336;DHT22;31365;48.858;8.530;2022-07-30T05:59:17;20.50;99.90
46336;DHT22;31365;48.858;8.530;2022-07-30T06:02:03;20.60;99.90
46336;DHT22;31365;48.858;8.530;2022-07-30T06:04:54;20.70;99.90
46336;DHT22;31365;48.858;8.530;2022-07-30T06:07:23;20.70;99.90
46336;DHT22;31365;48.858;8.530;2022-07-30T06:09:54;20.80;99.90
46336;DHT22;31365;48.858;8.530;2022-07-30T06:12:27;20.90;99.90
46336;DHT22;31365;48.858;8.530;2022-07-30T06:14:57;21.10;99.90
46336;DHT22;31365;48.858;8.530;2022-07-30T06:17:33;21.10;99.90
46336;DHT22;31365;48.858;8.530;2022-07-30T06:20:16;21.10;99.90
46336;DHT22;31365;48.858;8.530;2022-07-30T06:22:54;21.30;99.90
46336;DHT22;31365;48.858;8.530;2022-07-30T06:25:30;21.40;99.90
46336;DHT22;31365;48.858;8.530;2022-07-30T06:27:59;21.50;99.90
46336;DHT22;31365;48.858;8.530;2022-07-30T06:30:48;21.60;99.90
46336;DHT22;31365;48.858;8.530;2022-07-30T06:33:18;21.70;99.90
46336;DHT22;31365;48.858;8.530;2022-07-30T06:35:48;21.70;99.90
46336;DHT22;31365;48.858;8.530;2022-07-30T06:38:20;21.80;99.90
46336;DHT22;31365;48.858;8.530;2022-07-30T06:40:55;21.80;99.90
46336;DHT22;31365;48.858;8.530;2022-07-30T06:43:52;21.90;99.90
46336;DHT22;31365;48.858;8.530;2022-07-30T06:46:40;21.90;99.90
46336;DHT22;31365;48.858;8.530;2022-07-30T06:49:10;21.90;99.90
46336;DHT22;31365;48.858;8.530;2022-07-30T06:51:40;22.00;99.90
46336;DHT22;31365;48.858;8.530;2022-07-30T06:54:09;21.90;99.90
46336;DHT22;31365;48.858;8.530;2022-07-30T06:56:55;21.80;99.90
46336;DHT22;31365;48.858;8.530;2022-07-30T06:59:24;21.90;99.90
46336;DHT22;31365;48.858;8.530;2022-07-30T07:02:16;22.00;99.90
46336;DHT22;31365;48.858;8.530;2022-07-30T07:05:01;22.00;99.90
46336;DHT22;31365;48.858;8.530;2022-07-30T07:07:33;22.10;99.90
46336;DHT22;31365;48.858;8.530;2022-07-30T07:10:15;22.10;99.90
46336;DHT22;31365;48.858;8.530;2022-07-30T07:12:43;22.20;99.90
46336;DHT22;31365;48.858;8.530;2022-07-30T07:15:15;22.20;99.90
46336;DHT22;31365;48.858;8.530;2022-07-30T07:17:43;22.20;99.90
46336;DHT22;31365;48.858;8.530;2022-07-30T07:20:25;22.10;99.90
46336;DHT22;31365;48.858;8.530;2022-07-30T07:23:02;22.10;99.90
46336;DHT22;31365;48.858;8.530;2022-07-30T07:25:40;22.20;99.90
46336;DHT22;31365;48.858;8.530;2022-07-30T07:28:08;22.30;99.90
46336;DHT22;31365;48.858;8.530;2022-07-30T07:30:42;22.30;99.90
46336;DHT22;31365;48.858;8.530;2022-07-30T07:33:12;22.30;99.90
46336;DHT22;31365;48.858;8.530;2022-07-30T07:35:42;22.30;99.90
46336;DHT22;31365;48.858;8.530;2022-07-30T07:38:22;22.40;99.90
46336;DHT22;31365;48.858;8.530;2022-07-30T07:40:52;22.40;99.50
46336;DHT22;31365;48.858;8.530;2022-07-30T07:43:21;22.50;99.30
46336;DHT22;31365;48.858;8.530;2022-07-30T07:45:58;22.60;99.50
46336;DHT22;31365;48.858;8.530;2022-07-30T07:48:30;22.60;99.00
46336;DHT22;31365;48.858;8.530;2022-07-30T07:51:17;22.60;99.20
46336;DHT22;31365;48.858;8.530;2022-07-30T07:54:12;22.80;99.00
46336;DHT22;31365;48.858;8.530;2022-07-30T07:56:48;22.90;98.80
46336;DHT22;31365;48.858;8.530;2022-07-30T07:59:35;23.00;98.70
46336;DHT22;31365;48.858;8.530;2022-07-30T08:02:21;23.00;98.20
46336;DHT22;31365;48.858;8.530;2022-07-30T08:04:58;23.10;98.20
46336;DHT22;31365;48.858;8.530;2022-07-30T08:07:52;23.20;97.90
46336;DHT22;31365;48.858;8.530;2022-07-30T08:10:54;23.30;97.20
46336;DHT22;31365;48.858;8.530;2022-07-30T08:13:52;23.30;96.40
46336;DHT22;31365;48.858;8.530;2022-07-30T08:16:39;23.30;95.80
46336;DHT22;31365;48.858;8.530;2022-07-30T08:19:20;23.30;95.90
46336;DHT22;31365;48.858;8.530;2022-07-30T08:21:57;23.30;95.80
46336;DHT22;31365;48.858;8.530;2022-07-30T08:24:29;23.20;95.20
46336;DHT22;31365;48.858;8.530;2022-07-30T08:26:58;23.20;96.60
46336;DHT22;31365;48.858;8.530;2022-07-30T08:29:28;23.30;96.50
46336;DHT22;31365;48.858;8.530;2022-07-30T08:31:56;23.20;96.60
46336;DHT22;31365;48.858;8.530;2022-07-30T08:34:26;23.30;97.00
46336;DHT22;31365;48.858;8.530;2022-07-30T08:36:56;23.40;96.90
46336;DHT22;31365;48.858;8.530;2022-07-30T08:39:25;23.40;95.90
46336;DHT22;31365;48.858;8.530;2022-07-30T08:41:53;23.50;96.10
46336;DHT22;31365;48.858;8.530;2022-07-30T08:44:23;23.50;96.30
46336;DHT22;31365;48.858;8.530;2022-07-30T08:46:55;23.50;96.70
46336;DHT22;31365;48.858;8.530;2022-07-30T08:49:58;23.60;96.50
46336;DHT22;31365;48.858;8.530;2022-07-30T08:52:35;23.70;94.60
46336;DHT22;31365;48.858;8.530;2022-07-30T08:55:06;23.70;93.00
46336;DHT22;31365;48.858;8.530;2022-07-30T08:57:38;23.80;92.50
46336;DHT22;31365;48.858;8.530;2022-07-30T09:00:10;23.90;92.40
46336;DHT22;31365;48.858;8.530;2022-07-30T09:02:40;23.90;92.20
46336;DHT22;31365;48.858;8.530;2022-07-30T09:05:10;23.90;92.50
46336;DHT22;31365;48.858;8.530;2022-07-30T09:07:39;24.00;92.20
46336;DHT22;31365;48.858;8.530;2022-07-30T09:10:14;23.90;92.40
46336;DHT22;31365;48.858;8.530;2022-07-30T09:12:44;23.80;92.10
46336;DHT22;31365;48.858;8.530;2022-07-30T09:15:17;23.90;91.70
46336;DHT22;31365;48.858;8.530;2022-07-30T09:17:56;24.00;91.80
46336;DHT22;31365;48.858;8.530;2022-07-30T09:20:31;24.10;90.50
46336;DHT22;31365;48.858;8.530;2022-07-30T09:23:05;24.10;91.00
46336;DHT22;31365;48.858;8.530;2022-07-30T09:26:09;24.00;90.80
46336;DHT22;31365;48.858;8.530;2022-07-30T09:29:15;24.10;91.30
46336;DHT22;31365;48.858;8.530;2022-07-30T09:32:06;24.10;91.30
46336;DHT22;31365;48.858;8.530;2022-07-30T09:35:14;24.00;91.20
46336;DHT22;31365;48.858;8.530;2022-07-30T09:38:05;23.90;92.10
46336;DHT22;31365;48.858;8.530;2022-07-30T09:41:06;24.00;91.80
46336;DHT22;31365;48.858;8.530;2022-07-30T09:44:06;24.20;91.90
46336;DHT22;31365;48.858;8.530;2022-07-30T09:46:41;24.40;91.60
46336;DHT22;31365;48.858;8.530;2022-07-30T09:49:22;24.50;90.60
46336;DHT22;31365;48.858;8.530;2022-07-30T09:51:54;24.50;91.50
46336;DHT22;31365;48.858;8.530;2022-07-30T09:54:44;24.70;91.70
46336;DHT22;31365;48.858;8.530;2022-07-30T09:57:21;24.70;91.60
46336;DHT22;31365;48.858;8.530;2022-07-30T10:00:18;24.70;91.10
46336;DHT22;31365;48.858;8.530;2022-07-30T10:03:22;24.80;90.60
46336;DHT22;31365;48.858;8.530;2022-07-30T10:06:33;24.90;90.90
46336;DHT22;31365;48.858;8.530;2022-07-30T10:09:23;24.70;90.70
46336;DHT22;31365;48.858;8.530;2022-07-30T10:11:55;24.70;91.10
46336;DHT22;31365;48.858;8.530;2022-07-30T10:14:31;24.70;90.60
46336;DHT22;31365;48.858;8.530;2022-07-30T10:17:12;24.80;89.00
46336;DHT22;31365;48.858;8.530;2022-07-30T10:20:07;24.80;90.70
46336;DHT22;31365;48.858;8.530;2022-07-30T10:22:58;24.90;89.90
46336;DHT22;31365;48.858;8.530;2022-07-30T10:25:34;25.00;89.00
46336;DHT22;31365;48.858;8.530;2022-07-30T10:28:34;25.00;89.20
46336;DHT22;31365;48.858;8.530;2022-07-30T10:31:05;25.00;89.00
46336;DHT22;31365;48.858;8.530;2022-07-30T10:33:54;25.10;90.10
46336;DHT22;31365;48.858;8.530;2022-07-30T10:36:24;25.50;90.10
46336;DHT22;31365;48.858;8.530;2022-07-30T10:38:55;25.60;89.10
46336;DHT22;31365;48.858;8.530;2022-07-30T10:41:35;25.50;89.00
46336;DHT22;31365;48.858;8.530;2022-07-30T10:44:46;25.50;89.50
46336;DHT22;31365;48.858;8.530;2022-07-30T10:47:45;25.60;89.30
46336;DHT22;31365;48.858;8.530;2022-07-30T10:50:17;25.90;88.90
46336;DHT22;31365;48.858;8.530;2022-07-30T10:52:50;25.70;86.00
46336;DHT22;31365;48.858;8.530;2022-07-30T10:55:24;25.60;87.00
46336;DHT22;31365;48.858;8.530;2022-07-30T10:58:06;25.60;87.70
46336;DHT22;31365;48.858;8.530;2022-07-30T11:01:00;25.70;86.80
46336;DHT22;31365;48.858;8.530;2022-07-30T11:03:29;25.90;84.80
46336;DHT22;31365;48.858;8.530;2022-07-30T11:06:26;26.10;83.20
46336;DHT22;31365;48.858;8.530;2022-07-30T11:08:55;26.20;83.60
46336;DHT22;31365;48.858;8.530;2022-07-30T11:11:44;26.30;83.00
46336;DHT22;31365;48.858;8.530;2022-07-30T11:14:56;26.60;82.40
46336;DHT22;31365;48.858;8.530;2022-07-30T11:18:05;26.70;80.90
46336;DHT22;31365;48.858;8.530;2022-07-30T11:20:39;26.80;82.00
46336;DHT22;31365;48.858;8.530;2022-07-30T11:23:35;27.20;82.00
46336;DHT22;31365;48.858;8.530;2022-07-30T11:26:06;27.40;81.10
46336;DHT22;31365;48.858;8.530;2022-07-30T11:28:42;27.40;81.60
46336;DHT22;31365;48.858;8.530;2022-07-30T11:31:27;28.00;81.60
46336;DHT22;31365;48.858;8.530;2022-07-30T11:34:26;28.50;78.50
46336;DHT22;31365;48.858;8.530;2022-07-30T11:37:05;28.90;78.50
46336;DHT22;31365;48.858;8.530;2022-07-30T11:40:08;28.50;79.60
46336;DHT22;31365;48.858;8.530;2022-07-30T11:42:39;28.50;80.60
46336;DHT22;31365;48.858;8.530;2022-07-30T11:45:22;29.10;80.00
46336;DHT22;31365;48.858;8.530;2022-07-30T11:47:58;29.60;79.40
46336;DHT22;31365;48.858;8.530;2022-07-30T11:50:30;29.50;77.70
46336;DHT22;31365;48.858;8.530;2022-07-30T11:53:02;29.40;78.30
46336;DHT22;31365;48.858;8.530;2022-07-30T11:55:35;29.50;77.70
46336;DHT22;31365;48.858;8.530;2022-07-30T11:58:07;29.20;77.80
46336;DHT22;31365;48.858;8.530;2022-07-30T12:00:38;29.20;78.80
46336;DHT22;31365;48.858;8.530;2022-07-30T12:03:09;30.20;77.60
46336;DHT22;31365;48.858;8.530;2022-07-30T12:05:40;30.40;74.40
46336;DHT22;31365;48.858;8.530;2022-07-30T12:08:11;30.40;74.60
46336;DHT22;31365;48.858;8.530;2022-07-30T12:11:00;30.30;74.50
46336;DHT22;31365;48.858;8.530;2022-07-30T12:13:29;30.00;74.00
46336;DHT22;31365;48.858;8.530;2022-07-30T12:16:12;29.90;74.70
46336;DHT22;31365;48.858;8.530;2022-07-30T12:18:44;29.40;75.80
46336;DHT22;31365;48.858;8.530;2022-07-30T12:21:15;29.90;75.90
46336;DHT22;31365;48.858;8.530;2022-07-30T12:23:53;31.00;74.70
46336;DHT22;31365;48.858;8.530;2022-07-30T12:26:24;32.40;72.00
46336;DHT22;31365;48.858;8.530;2022-07-30T12:28:55;33.00;69.40
46336;DHT22;31365;48.858;8.530;2022-07-30T12:31:25;32.90;67.50
46336;DHT22;31365;48.858;8.530;2022-07-30T12:33:54;33.00;67.90
46336;DHT22;31365;48.858;8.530;2022-07-30T12:36:27;33.80;67.00
46336;DHT22;31365;48.858;8.530;2022-07-30T12:38:57;34.80;63.80
46336;DHT22;31365;48.858;8.530;2022-07-30T12:41:40;35.20;62.90
46336;DHT22;31365;48.858;8.530;2022-07-30T12:44:34;35.40;61.60
46336;DHT22;31365;48.858;8.530;2022-07-30T12:47:05;35.20;61.80
46336;DHT22;31365;48.858;8.530;2022-07-30T12:49:46;35.80;61.30
46336;DHT22;31365;48.858;8.530;2022-07-30T12:52:25;36.00;59.80
46336;DHT22;31365;48.858;8.530;2022-07-30T12:54:58;35.80;59.80
46336;DHT22;31365;48.858;8.530;2022-07-30T12:57:53;35.80;58.90
46336;DHT22;31365;48.858;8.530;2022-07-30T13:00:31;36.20;58.40
46336;DHT22;31365;48.858;8.530;2022-07-30T13:03:01;36.70;57.50
46336;DHT22;31365;48.858;8.530;2022-07-30T13:05:48;37.40;56.50
46336;DHT22;31365;48.858;8.530;2022-07-30T13:08:51;37.90;56.10
46336;DHT22;31365;48.858;8.530;2022-07-30T13:11:24;38.10;54.90
46336;DHT22;31365;48.858;8.530;2022-07-30T13:13:54;38.10;54.60
46336;DHT22;31365;48.858;8.530;2022-07-30T13:16:22;38.20;54.50
46336;DHT22;31365;48.858;8.530;2022-07-30T13:18:51;38.30;54.00
46336;DHT22;31365;48.858;8.530;2022-07-30T13:21:19;38.90;53.60
46336;DHT22;31365;48.858;8.530;2022-07-30T13:23:48;39.70;53.10
46336;DHT22;31365;48.858;8.530;2022-07-30T13:26:18;39.20;52.40
46336;DHT22;31365;48.858;8.530;2022-07-30T13:28:46;38.90;51.70
46336;DHT22;31365;48.858;8.530;2022-07-30T13:31:15;38.50;51.80
46336;DHT22;31365;48.858;8.530;2022-07-30T13:33:44;38.20;52.40
46336;DHT22;31365;48.858;8.530;2022-07-30T13:36:12;38.10;52.50
46336;DHT22;31365;48.858;8.530;2022-07-30T13:38:40;38.50;52.30
46336;DHT22;31365;48.858;8.530;2022-07-30T13:41:09;38.20;52.80
46336;DHT22;31365;48.858;8.530;2022-07-30T13:43:39;38.80;52.10
46336;DHT22;31365;48.858;8.530;2022-07-30T13:46:07;39.20;51.70
46336;DHT22;31365;48.858;8.530;2022-07-30T13:48:36;39.30;51.10
46336;DHT22;31365;48.858;8.530;2022-07-30T13:51:05;38.90;51.00
46336;DHT22;31365;48.858;8.530;2022-07-30T13:53:33;37.60;52.00
46336;DHT22;31365;48.858;8.530;2022-07-30T13:56:01;37.60;52.80
46336;DHT22;31365;48.858;8.530;2022-07-30T13:58:39;37.20;52.10
46336;DHT22;31365;48.858;8.530;2022-07-30T14:01:08;35.80;53.80
46336;DHT22;31365;48.858;8.530;2022-07-30T14:03:44;35.00;55.10
46336;DHT22;31365;48.858;8.530;2022-07-30T14:06:16;35.10;55.40
46336;DHT22;31365;48.858;8.530;2022-07-30T14:08:45;34.80;55.70
46336;DHT22;31365;48.858;8.530;2022-07-30T14:11:14;34.30;56.00
46336;DHT22;31365;48.858;8.530;2022-07-30T14:13:44;34.10;56.40
46336;DHT22;31365;48.858;8.530;2022-07-30T14:16:13;34.60;56.40
46336;DHT22;31365;48.858;8.530;2022-07-30T14:19:01;35.20;55.30
46336;DHT22;31365;48.858;8.530;2022-07-30T14:21:30;35.80;55.00
46336;DHT22;31365;48.858;8.530;2022-07-30T14:23:58;36.00;54.40
46336;DHT22;31365;48.858;8.530;2022-07-30T14:26:26;36.00;54.40
46336;DHT22;31365;48.858;8.530;2022-07-30T14:29:03;35.50;54.70
46336;DHT22;31365;48.858;8.530;2022-07-30T14:31:33;34.60;55.40
46336;DHT22;31365;48.858;8.530;2022-07-30T14:34:02;34.40;55.90
46336;DHT22;31365;48.858;8.530;2022-07-30T14:36:31;34.40;55.90
46336;DHT22;31365;48.858;8.530;2022-07-30T14:39:00;34.60;56.00
46336;DHT22;31365;48.858;8.530;2022-07-30T14:41:30;35.20;55.30
46336;DHT22;31365;48.858;8.530;2022-07-30T14:43:58;35.20;54.50
46336;DHT22;31365;48.858;8.530;2022-07-30T14:46:28;35.10;54.70
46336;DHT22;31365;48.858;8.530;2022-07-30T14:48:57;35.30;54.30
46336;DHT22;31365;48.858;8.530;2022-07-30T14:51:25;35.10;53.90
46336;DHT22;31365;48.858;8.530;2022-07-30T14:54:00;35.10;53.80
46336;DHT22;31365;48.858;8.530;2022-07-30T14:56:29;35.20;54.00
46336;DHT22;31365;48.858;8.530;2022-07-30T14:58:57;35.50;53.80
46336;DHT22;31365;48.858;8.530;2022-07-30T15:01:25;35.70;53.70
46336;DHT22;31365;48.858;8.530;2022-07-30T15:03:55;36.10;52.70
46336;DHT22;31365;48.858;8.530;2022-07-30T15:06:24;36.20;52.20
46336;DHT22;31365;48.858;8.530;2022-07-30T15:08:52;35.70;52.00
46336;DHT22;31365;48.858;8.530;2022-07-30T15:11:20;35.50;52.50
46336;DHT22;31365;48.858;8.530;2022-07-30T15:13:51;35.40;52.50
46336;DHT22;31365;48.858;8.530;2022-07-30T15:16:19;34.50;53.70
46336;DHT22;31365;48.858;8.530;2022-07-30T15:18:47;34.20;54.10
46336;DHT22;31365;48.858;8.530;2022-07-30T15:21:17;33.70;53.90
46336;DHT22;31365;48.858;8.530;2022-07-30T15:23:46;33.00;54.80
46336;DHT22;31365;48.858;8.530;2022-07-30T15:26:14;32.40;55.80
46336;DHT22;31365;48.858;8.530;2022-07-30T15:28:43;31.90;56.30
46336;DHT22;31365;48.858;8.530;2022-07-30T15:31:11;31.50;56.80
46336;DHT22;31365;48.858;8.530;2022-07-30T15:33:40;31.10;57.70
46336;DHT22;31365;48.858;8.530;2022-07-30T15:36:09;31.00;58.20
46336;DHT22;31365;48.858;8.530;2022-07-30T15:38:40;30.80;58.10
46336;DHT22;31365;48.858;8.530;2022-07-30T15:41:09;30.70;58.00
46336;DHT22;31365;48.858;8.530;2022-07-30T15:43:39;30.70;58.00
46336;DHT22;31365;48.858;8.530;2022-07-30T15:46:08;30.60;57.70
46336;DHT22;31365;48.858;8.530;2022-07-30T15:48:36;30.40;58.10
46336;DHT22;31365;48.858;8.530;2022-07-30T15:51:05;30.20;58.20
46336;DHT22;31365;48.858;8.530;2022-07-30T15:53:34;30.40;58.60
46336;DHT22;31365;48.858;8.530;2022-07-30T15:56:04;30.30;58.70
46336;DHT22;31365;48.858;8.530;2022-07-30T15:58:32;30.40;58.20
46336;DHT22;31365;48.858;8.530;2022-07-30T16:01:06;30.50;58.20
46336;DHT22;31365;48.858;8.530;2022-07-30T16:03:35;30.60;58.30
46336;DHT22;31365;48.858;8.530;2022-07-30T16:06:03;30.70;57.70
46336;DHT22;31365;48.858;8.530;2022-07-30T16:08:31;30.40;58.00
46336;DHT22;31365;48.858;8.530;2022-07-30T16:11:00;30.40;58.20
46336;DHT22;31365;48.858;8.530;2022-07-30T16:13:31;30.30;58.50
46336;DHT22;31365;48.858;8.530;2022-07-30T16:15:59;30.30;58.50
46336;DHT22;31365;48.858;8.530;2022-07-30T16:18:28;30.10;58.70
46336;DHT22;31365;48.858;8.530;2022-07-30T16:20:57;30.10;58.90